sensor_id;sensor_type;location;lat;lon;timestamp;pressure;altitude;pressure_sealevel;temperature;humidity
8280;BME280;8335;42.646;23.380;2022-08-19T00:00:58;94206.53;;;22.27;66.37
8280;BME280;8335;42.646;23.380;2022-08-19T00:03:25;94194.06;;;22.31;66.01
8280;BME280;8335;42.646;23.380;2022-08-19T00:05:51;94204.78;;;22.36;65.93
8280;BME280;8335;42.646;23.380;2022-08-19T00:08:18;94201.72;;;22.40;65.45
8280;BME280;8335;42.646;23.380;2022-08-19T00:10:45;94207.72;;;22.41;65.82
8280;BME280;8335;42.646;23.380;2022-08-19T00:13:13;94204.81;;;22.44;65.07
8280;BME280;8335;42.646;23.380;2022-08-19T00:15:40;94199.47;;;22.45;65.36
8280;BME280;8335;42.646;23.380;2022-08-19T00:18:11;94196.38;;;22.42;65.60
8280;BME280;8335;42.646;23.380;2022-08-19T00:20:38;94211.13;;;22.41;65.72
8280;BME280;8335;42.646;23.380;2022-08-19T00:23:05;94191.78;;;22.28;65.96
8280;BME280;8335;42.646;23.380;2022-08-19T00:25:32;94193.41;;;22.29;65.83
8280;BME280;8335;42.646;23.380;2022-08-19T00:28:02;94211.44;;;22.38;65.84
8280;BME280;8335;42.646;23.380;2022-08-19T00:30:29;94222.00;;;22.37;65.63
8280;BME280;8335;42.646;23.380;2022-08-19T00:32:57;94210.28;;;22.33;65.70
8280;BME280;8335;42.646;23.380;2022-08-19T00:35:25;94215.63;;;22.31;66.39
8280;BME280;8335;42.646;23.380;2022-08-19T00:37:53;94226.00;;;22.31;66.42
8280;BME280;8335;42.646;23.380;2022-08-19T00:40:20;94193.25;;;22.22;65.72
8280;BME280;8335;42.646;23.380;2022-08-19T00:42:47;94212.41;;;22.37;66.04
8280;BME280;8335;42.646;23.380;2022-08-19T00:45:17;94208.84;;;22.38;66.06
8280;BME280;8335;42.646;23.380;2022-08-19T00:47:45;94173.25;;;22.14;66.19
8280;BME280;8335;42.646;23.380;2022-08-19T00:50:15;94174.22;;;22.13;65.93
8280;BME280;8335;42.646;23.380;2022-08-19T00:52:46;94211.91;;;22.34;66.10
8280;BME280;8335;42.646;23.380;2022-08-19T00:55:16;94202.03;;;22.29;66.12
8280;BME280;8335;42.646;23.380;2022-08-19T00:57:50;94208.84;;;22.30;66.29
8280;BME280;8335;42.646;23.380;2022-08-19T01:00:20;94205.06;;;22.24;66.50
8280;BME280;8335;42.646;23.380;2022-08-19T01:02:48;94186.38;;;22.13;66.69
8280;BME280;8335;42.646;23.380;2022-08-19T01:05:18;94206.06;;;22.23;66.09
8280;BME280;8335;42.646;23.380;2022-08-19T01:07:48;94212.03;;;22.24;66.24
8280;BME280;8335;42.646;23.380;2022-08-19T01:10:20;94207.31;;;22.19;65.96
8280;BME280;8335;42.646;23.380;2022-08-19T01:12:48;94203.44;;;22.15;66.58
8280;BME280;8335;42.646;23.380;2022-08-19T01:15:19;94212.47;;;22.11;67.06
8280;BME280;8335;42.646;23.380;2022-08-19T01:17:48;94194.72;;;21.98;66.25
8280;BME280;8335;42.646;23.380;2022-08-19T01:20:20;94206.72;;;21.99;67.18
8280;BME280;8335;42.646;23.380;2022-08-19T01:22:51;94210.09;;;21.92;67.46
8280;BME280;8335;42.646;23.380;2022-08-19T01:25:20;94155.97;;;21.55;68.10
8280;BME280;8335;42.646;23.380;2022-08-19T01:27:49;94198.28;;;21.63;68.94
8280;BME280;8335;42.646;23.380;2022-08-19T01:30:20;94205.19;;;21.55;69.78
8280;BME280;8335;42.646;23.380;2022-08-19T01:32:47;94205.53;;;21.34;70.71
8280;BME280;8335;42.646;23.380;2022-08-19T01:35:14;94199.91;;;21.21;71.62
8280;BME280;8335;42.646;23.380;2022-08-19T01:37:50;94206.38;;;21.16;71.99
8280;BME280;8335;42.646;23.380;2022-08-19T01:40:19;94205.28;;;21.01;72.63
8280;BME280;8335;42.646;23.380;2022-08-19T01:42:46;94217.69;;;20.98;73.40
8280;BME280;8335;42.646;23.380;2022-08-19T01:45:13;94197.50;;;20.83;74.21
8280;BME280;8335;42.646;23.380;2022-08-19T01:47:40;94199.06;;;20.76;74.49
8280;BME280;8335;42.646;23.380;2022-08-19T01:50:08;94197.75;;;20.72;74.84
8280;BME280;8335;42.646;23.380;2022-08-19T01:52:36;94193.66;;;20.70;74.46
8280;BME280;8335;42.646;23.380;2022-08-19T01:55:05;94200.91;;;20.66;74.61
8280;BME280;8335;42.646;23.380;2022-08-19T01:57:33;94196.25;;;20.70;74.65
8280;BME280;8335;42.646;23.380;2022-08-19T02:00:00;94190.09;;;20.71;74.15
8280;BME280;8335;42.646;23.380;2022-08-19T02:02:28;94196.63;;;20.75;74.29
8280;BME280;8335;42.646;23.380;2022-08-19T02:04:55;94202.63;;;20.75;74.43
8280;BME280;8335;42.646;23.380;2022-08-19T02:07:22;94200.69;;;20.77;74.23
8280;BME280;8335;42.646;23.380;2022-08-19T02:09:49;94200.56;;;20.79;74.66
8280;BME280;8335;42.646;23.380;2022-08-19T02:12:17;94189.69;;;20.75;74.58
8280;BME280;8335;42.646;23.380;2022-08-19T02:14:44;94199.59;;;20.80;74.49
8280;BME280;8335;42.646;23.380;2022-08-19T02:17:10;94195.88;;;20.82;74.48
8280;BME280;8335;42.646;23.380;2022-08-19T02:19:37;94191.84;;;20.80;74.88
8280;BME280;8335;42.646;23.380;2022-08-19T02:22:04;94192.78;;;20.79;75.00
8280;BME280;8335;42.646;23.380;2022-08-19T02:24:31;94191.31;;;20.76;74.66
8280;BME280;8335;42.646;23.380;2022-08-19T02:26:58;94198.47;;;20.82;74.98
8280;BME280;8335;42.646;23.380;2022-08-19T02:29:26;94202.03;;;20.81;75.22
8280;BME280;8335;42.646;23.380;2022-08-19T02:31:53;94201.38;;;20.79;74.89
8280;BME280;8335;42.646;23.380;2022-08-19T02:34:20;94203.44;;;20.76;75.45
8280;BME280;8335;42.646;23.380;2022-08-19T02:36:46;94206.16;;;20.74;75.31
8280;BME280;8335;42.646;23.380;2022-08-19T02:39:13;94206.75;;;20.68;75.26
8280;BME280;8335;42.646;23.380;2022-08-19T02:41:39;94204.59;;;20.64;75.68
8280;BME280;8335;42.646;23.380;2022-08-19T02:44:06;94207.34;;;20.62;75.55
8280;BME280;8335;42.646;23.380;2022-08-19T02:46:35;94214.28;;;20.61;75.79
8280;BME280;8335;42.646;23.380;2022-08-19T02:49:04;94209.91;;;20.62;75.11
8280;BME280;8335;42.646;23.380;2022-08-19T02:51:34;94217.41;;;20.65;74.77
8280;BME280;8335;42.646;23.380;2022-08-19T02:54:01;94212.88;;;20.67;74.49
8280;BME280;8335;42.646;23.380;2022-08-19T02:56:29;94211.41;;;20.65;74.86
8280;BME280;8335;42.646;23.380;2022-08-19T02:58:56;94214.81;;;20.65;74.72
8280;BME280;8335;42.646;23.380;2022-08-19T03:01:25;94214.94;;;20.64;74.03
8280;BME280;8335;42.646;23.380;2022-08-19T03:03:54;94212.50;;;20.62;74.47
8280;BME280;8335;42.646;23.380;2022-08-19T03:06:22;94210.38;;;20.57;74.91
8280;BME280;8335;42.646;23.380;2022-08-19T03:08:49;94220.78;;;20.48;75.46
8280;BME280;8335;42.646;23.380;2022-08-19T03:11:19;94212.28;;;20.28;76.51
8280;BME280;8335;42.646;23.380;2022-08-19T03:13:46;94209.59;;;20.20;77.12
8280;BME280;8335;42.646;23.380;2022-08-19T03:16:14;94210.06;;;20.15;77.77
8280;BME280;8335;42.646;23.380;2022-08-19T03:18:41;94190.56;;;19.93;78.37
8280;BME280;8335;42.646;23.380;2022-08-19T03:21:17;94199.13;;;19.94;78.73
8280;BME280;8335;42.646;23.380;2022-08-19T03:23:44;94203.09;;;19.88;79.16
8280;BME280;8335;42.646;23.380;2022-08-19T03:26:11;94199.97;;;19.85;79.44
8280;BME280;8335;42.646;23.380;2022-08-19T03:28:40;94160.34;;;19.57;79.77
8280;BME280;8335;42.646;23.380;2022-08-19T03:31:09;94201.50;;;19.77;79.69
8280;BME280;8335;42.646;23.380;2022-08-19T03:33:37;94204.22;;;19.76;80.01
8280;BME280;8335;42.646;23.380;2022-08-19T03:36:08;94201.50;;;19.77;80.03
8280;BME280;8335;42.646;23.380;2022-08-19T03:38:38;94200.41;;;19.80;80.03
8280;BME280;8335;42.646;23.380;2022-08-19T03:41:07;94202.56;;;19.85;79.92
8280;BME280;8335;42.646;23.380;2022-08-19T03:43:35;94202.81;;;19.91;79.86
8280;BME280;8335;42.646;23.380;2022-08-19T03:46:04;94208.59;;;20.03;79.28
8280;BME280;8335;42.646;23.380;2022-08-19T03:48:32;94221.22;;;20.16;78.80
8280;BME280;8335;42.646;23.380;2022-08-19T03:50:59;94207.41;;;20.25;77.69
8280;BME280;8335;42.646;23.380;2022-08-19T03:53:27;94224.25;;;20.56;76.46
8280;BME280;8335;42.646;23.380;2022-08-19T03:55:56;94214.97;;;20.81;75.26
8280;BME280;8335;42.646;23.380;2022-08-19T03:58:25;94234.16;;;21.14;73.49
8280;BME280;8335;42.646;23.380;2022-08-19T04:00:53;94225.28;;;21.35;72.00
8280;BME280;8335;42.646;23.380;2022-08-19T04:03:19;94237.91;;;21.56;71.35
8280;BME280;8335;42.646;23.380;2022-08-19T04:05:46;94246.66;;;21.81;70.57
8280;BME280;8335;42.646;23.380;2022-08-19T04:08:13;94253.25;;;22.01;69.21
8280;BME280;8335;42.646;23.380;2022-08-19T04:10:46;94245.56;;;22.17;68.72
8280;BME280;8335;42.646;23.380;2022-08-19T04:13:15;94243.38;;;22.39;68.16
8280;BME280;8335;42.646;23.380;2022-08-19T04:15:44;94253.41;;;22.84;66.46
8280;BME280;8335;42.646;23.380;2022-08-19T04:18:12;94261.25;;;23.49;63.90
8280;BME280;8335;42.646;23.380;2022-08-19T04:20:40;94260.09;;;23.93;61.38
8280;BME280;8335;42.646;23.380;2022-08-19T04:23:07;94254.00;;;24.25;59.44
8280;BME280;8335;42.646;23.380;2022-08-19T04:25:36;94266.59;;;24.83;57.83
8280;BME280;8335;42.646;23.380;2022-08-19T04:28:03;94269.91;;;25.00;56.99
8280;BME280;8335;42.646;23.380;2022-08-19T04:30:37;94277.56;;;25.10;57.01
8280;BME280;8335;42.646;23.380;2022-08-19T04:33:04;94270.09;;;24.98;57.02
8280;BME280;8335;42.646;23.380;2022-08-19T04:35:35;94257.69;;;25.09;56.46
8280;BME280;8335;42.646;23.380;2022-08-19T04:38:02;94270.25;;;25.51;55.61
8280;BME280;8335;42.646;23.380;2022-08-19T04:40:29;94270.66;;;26.00;53.98
8280;BME280;8335;42.646;23.380;2022-08-19T04:43:14;94270.38;;;26.69;52.31
8280;BME280;8335;42.646;23.380;2022-08-19T04:45:42;94268.66;;;26.98;51.24
8280;BME280;8335;42.646;23.380;2022-08-19T04:48:09;94271.47;;;27.75;49.13
8280;BME280;8335;42.646;23.380;2022-08-19T04:50:40;94261.16;;;27.95;48.63
8280;BME280;8335;42.646;23.380;2022-08-19T04:53:07;94265.47;;;27.81;48.20
8280;BME280;8335;42.646;23.380;2022-08-19T04:55:34;94260.47;;;28.49;47.00
8280;BME280;8335;42.646;23.380;2022-08-19T04:58:01;94270.41;;;29.08;44.81
8280;BME280;8335;42.646;23.380;2022-08-19T05:00:29;94279.31;;;29.40;43.80
8280;BME280;8335;42.646;23.380;2022-08-19T05:02:57;94284.25;;;30.09;42.64
8280;BME280;8335;42.646;23.380;2022-08-19T05:05:24;94291.16;;;30.82;41.09
8280;BME280;8335;42.646;23.380;2022-08-19T05:07:50;94291.22;;;31.52;39.44
8280;BME280;8335;42.646;23.380;2022-08-19T05:10:17;94285.00;;;32.46;37.46
8280;BME280;8335;42.646;23.380;2022-08-19T05:12:44;94290.94;;;32.96;36.11
8280;BME280;8335;42.646;23.380;2022-08-19T05:15:11;94300.25;;;33.59;34.87
8280;BME280;8335;42.646;23.380;2022-08-19T05:17:38;94294.72;;;34.14;33.84
8280;BME280;8335;42.646;23.380;2022-08-19T05:20:26;94305.38;;;34.89;32.75
8280;BME280;8335;42.646;23.380;2022-08-19T05:23:11;94292.69;;;35.43;31.57
8280;BME280;8335;42.646;23.380;2022-08-19T05:25:41;94300.31;;;36.19;30.40
8280;BME280;8335;42.646;23.380;2022-08-19T05:28:08;94300.69;;;36.83;29.25
8280;BME280;8335;42.646;23.380;2022-08-19T05:30:35;94316.13;;;37.52;29.45
8280;BME280;8335;42.646;23.380;2022-08-19T05:33:02;94315.59;;;38.14;27.96
8280;BME280;8335;42.646;23.380;2022-08-19T05:35:30;94319.09;;;38.57;27.41
8280;BME280;8335;42.646;23.380;2022-08-19T05:37:57;94314.31;;;39.06;26.70
8280;BME280;8335;42.646;23.380;2022-08-19T05:40:23;94327.81;;;39.52;25.98
8280;BME280;8335;42.646;23.380;2022-08-19T05:42:50;94328.75;;;40.08;25.72
8280;BME280;8335;42.646;23.380;2022-08-19T05:45:21;94326.28;;;40.58;24.81
8280;BME280;8335;42.646;23.380;2022-08-19T05:47:48;94294.72;;;40.90;24.16
8280;BME280;8335;42.646;23.380;2022-08-19T05:50:14;94335.59;;;41.56;23.68
8280;BME280;8335;42.646;23.380;2022-08-19T05:52:46;94336.47;;;41.90;23.59
8280;BME280;8335;42.646;23.380;2022-08-19T05:55:13;94341.78;;;41.95;22.82
8280;BME280;8335;42.646;23.380;2022-08-19T05:57:40;94335.94;;;41.88;23.25
8280;BME280;8335;42.646;23.380;2022-08-19T06:00:08;94330.13;;;41.76;23.21
8280;BME280;8335;42.646;23.380;2022-08-19T06:02:36;94338.56;;;41.49;23.27
8280;BME280;8335;42.646;23.380;2022-08-19T06:05:04;94334.06;;;41.39;23.38
8280;BME280;8335;42.646;23.380;2022-08-19T06:07:34;94332.75;;;41.37;23.42
8280;BME280;8335;42.646;23.380;2022-08-19T06:10:03;94337.66;;;41.09;23.34
8280;BME280;8335;42.646;23.380;2022-08-19T06:12:32;94335.44;;;41.21;23.59
8280;BME280;8335;42.646;23.380;2022-08-19T06:15:02;94335.44;;;41.21;24.13
8280;BME280;8335;42.646;23.380;2022-08-19T06:17:29;94333.69;;;40.86;24.12
8280;BME280;8335;42.646;23.380;2022-08-19T06:19:56;94331.88;;;40.71;24.05
8280;BME280;8335;42.646;23.380;2022-08-19T06:22:23;94350.88;;;40.60;24.18
8280;BME280;8335;42.646;23.380;2022-08-19T06:24:50;94346.31;;;40.65;24.30
8280;BME280;8335;42.646;23.380;2022-08-19T06:27:19;94348.44;;;40.63;24.78
8280;BME280;8335;42.646;23.380;2022-08-19T06:29:46;94346.28;;;39.89;24.88
8280;BME280;8335;42.646;23.380;2022-08-19T06:32:15;94339.94;;;40.10;25.21
8280;BME280;8335;42.646;23.380;2022-08-19T06:34:43;94325.25;;;40.33;24.60
8280;BME280;8335;42.646;23.380;2022-08-19T06:37:10;94330.56;;;40.43;24.79
8280;BME280;8335;42.646;23.380;2022-08-19T06:39:40;94302.56;;;40.21;25.33
8280;BME280;8335;42.646;23.380;2022-08-19T06:42:08;94342.88;;;40.04;24.70
8280;BME280;8335;42.646;23.380;2022-08-19T06:44:40;94325.50;;;39.96;25.08
8280;BME280;8335;42.646;23.380;2022-08-19T06:47:09;94335.53;;;39.48;25.48
8280;BME280;8335;42.646;23.380;2022-08-19T06:49:36;94334.03;;;39.73;25.63
8280;BME280;8335;42.646;23.380;2022-08-19T06:52:04;94325.19;;;39.62;25.21
8280;BME280;8335;42.646;23.380;2022-08-19T06:54:31;94319.59;;;39.79;25.22
8280;BME280;8335;42.646;23.380;2022-08-19T06:56:59;94336.19;;;39.08;25.90
8280;BME280;8335;42.646;23.380;2022-08-19T06:59:28;94314.09;;;39.13;25.88
8280;BME280;8335;42.646;23.380;2022-08-19T07:02:01;94344.31;;;39.44;25.87
8280;BME280;8335;42.646;23.380;2022-08-19T07:04:32;94330.81;;;39.81;25.49
8280;BME280;8335;42.646;23.380;2022-08-19T07:07:01;94351.66;;;40.14;25.02
8280;BME280;8335;42.646;23.380;2022-08-19T07:09:28;94350.59;;;40.05;24.63
8280;BME280;8335;42.646;23.380;2022-08-19T07:11:55;94352.47;;;40.56;23.93
8280;BME280;8335;42.646;23.380;2022-08-19T07:14:24;94350.25;;;40.93;23.86
8280;BME280;8335;42.646;23.380;2022-08-19T07:16:54;94345.41;;;41.01;23.78
8280;BME280;8335;42.646;23.380;2022-08-19T07:19:24;94341.72;;;40.81;23.35
8280;BME280;8335;42.646;23.380;2022-08-19T07:21:52;94309.75;;;40.66;23.85
8280;BME280;8335;42.646;23.380;2022-08-19T07:24:20;94354.28;;;40.76;23.59
8280;BME280;8335;42.646;23.380;2022-08-19T07:26:49;94352.97;;;40.58;24.45
8280;BME280;8335;42.646;23.380;2022-08-19T07:29:17;94344.13;;;40.83;23.51
8280;BME280;8335;42.646;23.380;2022-08-19T07:31:44;94351.53;;;41.16;23.41
8280;BME280;8335;42.646;23.380;2022-08-19T07:34:11;94331.22;;;41.15;23.18
8280;BME280;8335;42.646;23.380;2022-08-19T07:36:42;94349.38;;;41.18;23.46
8280;BME280;8335;42.646;23.380;2022-08-19T07:39:11;94346.91;;;41.27;23.76
8280;BME280;8335;42.646;23.380;2022-08-19T07:41:38;94347.56;;;41.63;22.96
8280;BME280;8335;42.646;23.380;2022-08-19T07:44:06;94348.44;;;41.98;22.41
8280;BME280;8335;42.646;23.380;2022-08-19T07:46:35;94342.94;;;42.23;21.94
8280;BME280;8335;42.646;23.380;2022-08-19T07:49:03;94352.38;;;42.45;22.01
8280;BME280;8335;42.646;23.380;2022-08-19T07:51:30;94345.19;;;42.40;21.86
8280;BME280;8335;42.646;23.380;2022-08-19T07:53:59;94344.13;;;42.36;22.41
8280;BME280;8335;42.646;23.380;2022-08-19T07:56:25;94356.22;;;42.63;21.69
8280;BME280;8335;42.646;23.380;2022-08-19T07:58:53;94342.63;;;42.83;21.62
8280;BME280;8335;42.646;23.380;2022-08-19T08:01:24;94341.50;;;43.13;21.49
8280;BME280;8335;42.646;23.380;2022-08-19T08:03:52;94354.34;;;43.40;21.06
8280;BME280;8335;42.646;23.380;2022-08-19T08:06:37;94356.88;;;43.50;21.01
8280;BME280;8335;42.646;23.380;2022-08-19T08:09:24;94352.53;;;43.54;21.00
8280;BME280;8335;42.646;23.380;2022-08-19T08:11:53;94356.53;;;43.76;20.63
8280;BME280;8335;42.646;23.380;2022-08-19T08:14:23;94348.69;;;43.42;20.37
8280;BME280;8335;42.646;23.380;2022-08-19T08:16:51;94346.81;;;42.94;21.47
8280;BME280;8335;42.646;23.380;2022-08-19T08:19:19;94339.16;;;42.82;21.94
8280;BME280;8335;42.646;23.380;2022-08-19T08:21:47;94346.38;;;43.11;21.17
8280;BME280;8335;42.646;23.380;2022-08-19T08:24:14;94344.34;;;43.46;20.91
8280;BME280;8335;42.646;23.380;2022-08-19T08:26:43;94343.78;;;43.86;20.85
8280;BME280;8335;42.646;23.380;2022-08-19T08:29:10;94341.03;;;43.73;20.82
8280;BME280;8335;42.646;23.380;2022-08-19T08:31:39;94342.69;;;43.26;20.94
8280;BME280;8335;42.646;23.380;2022-08-19T08:34:06;94338.78;;;43.18;20.87
8280;BME280;8335;42.646;23.380;2022-08-19T08:36:36;94341.31;;;43.09;20.97
8280;BME280;8335;42.646;23.380;2022-08-19T08:39:07;94336.59;;;43.20;20.88
8280;BME280;8335;42.646;23.380;2022-08-19T08:41:39;94329.50;;;43.29;20.68
8280;BME280;8335;42.646;23.380;2022-08-19T08:44:14;94289.50;;;43.14;20.89
8280;BME280;8335;42.646;23.380;2022-08-19T08:46:45;94343.88;;;43.81;19.97
8280;BME280;8335;42.646;23.380;2022-08-19T08:49:20;94325.28;;;43.47;20.16
8280;BME280;8335;42.646;23.380;2022-08-19T08:51:53;94335.06;;;43.57;19.37
8280;BME280;8335;42.646;23.380;2022-08-19T08:54:28;94328.91;;;43.37;19.20
8280;BME280;8335;42.646;23.380;2022-08-19T08:56:56;94324.94;;;43.54;19.56
8280;BME280;8335;42.646;23.380;2022-08-19T08:59:29;94316.59;;;42.89;20.23
8280;BME280;8335;42.646;23.380;2022-08-19T09:01:58;94321.06;;;42.98;20.42
8280;BME280;8335;42.646;23.380;2022-08-19T09:04:24;94319.91;;;42.80;20.10
8280;BME280;8335;42.646;23.380;2022-08-19T09:06:55;94309.88;;;42.67;20.24
8280;BME280;8335;42.646;23.380;2022-08-19T09:09:27;94309.97;;;42.57;20.13
8280;BME280;8335;42.646;23.380;2022-08-19T09:12:04;94310.50;;;42.59;20.38
8280;BME280;8335;42.646;23.380;2022-08-19T09:14:42;94307.31;;;42.52;20.06
8280;BME280;8335;42.646;23.380;2022-08-19T09:17:12;94303.19;;;42.65;19.59
8280;BME280;8335;42.646;23.380;2022-08-19T09:19:49;94302.91;;;43.14;19.58
8280;BME280;8335;42.646;23.380;2022-08-19T09:22:16;94304.41;;;43.63;19.25
8280;BME280;8335;42.646;23.380;2022-08-19T09:24:47;94299.50;;;43.89;18.22
8280;BME280;8335;42.646;23.380;2022-08-19T09:27:14;94302.03;;;43.43;18.22
8280;BME280;8335;42.646;23.380;2022-08-19T09:29:42;94294.38;;;42.88;19.12
8280;BME280;8335;42.646;23.380;2022-08-19T09:32:14;94295.47;;;42.87;18.97
8280;BME280;8335;42.646;23.380;2022-08-19T09:34:41;94285.75;;;42.91;18.61
8280;BME280;8335;42.646;23.380;2022-08-19T09:37:08;94293.59;;;43.30;18.48
8280;BME280;8335;42.646;23.380;2022-08-19T09:39:35;94287.03;;;43.60;17.88
8280;BME280;8335;42.646;23.380;2022-08-19T09:42:02;94278.81;;;43.71;18.11
8280;BME280;8335;42.646;23.380;2022-08-19T09:44:30;94286.94;;;43.84;17.67
8280;BME280;8335;42.646;23.380;2022-08-19T09:47:00;94286.72;;;43.62;17.77
8280;BME280;8335;42.646;23.380;2022-08-19T09:49:27;94290.03;;;43.35;18.28
8280;BME280;8335;42.646;23.380;2022-08-19T09:51:54;94290.06;;;43.54;17.75
8280;BME280;8335;42.646;23.380;2022-08-19T09:54:21;94287.47;;;43.67;17.98
8280;BME280;8335;42.646;23.380;2022-08-19T09:56:48;94291.59;;;43.79;17.55
8280;BME280;8335;42.646;23.380;2022-08-19T09:59:15;94284.38;;;43.93;17.56
8280;BME280;8335;42.646;23.380;2022-08-19T10:01:42;94281.94;;;43.97;17.64
8280;BME280;8335;42.646;23.380;2022-08-19T10:04:10;94272.97;;;43.87;17.02
8280;BME280;8335;42.646;23.380;2022-08-19T10:06:38;94263.31;;;43.30;17.25
8280;BME280;8335;42.646;23.380;2022-08-19T10:09:09;94235.34;;;42.21;17.93
8280;BME280;8335;42.646;23.380;2022-08-19T10:11:39;94248.66;;;41.63;18.94
8280;BME280;8335;42.646;23.380;2022-08-19T10:14:06;94254.34;;;41.51;19.88
8280;BME280;8335;42.646;23.380;2022-08-19T10:16:35;94214.72;;;41.19;19.26
8280;BME280;8335;42.646;23.380;2022-08-19T10:19:02;94251.09;;;41.15;19.58
8280;BME280;8335;42.646;23.380;2022-08-19T10:21:32;94242.28;;;41.10;19.55
8280;BME280;8335;42.646;23.380;2022-08-19T10:24:01;94250.44;;;41.29;19.15
8280;BME280;8335;42.646;23.380;2022-08-19T10:26:32;94241.44;;;41.14;19.76
8280;BME280;8335;42.646;23.380;2022-08-19T10:28:59;94234.66;;;40.83;20.14
8280;BME280;8335;42.646;23.380;2022-08-19T10:31:28;94242.81;;;40.27;20.32
8280;BME280;8335;42.646;23.380;2022-08-19T10:33:57;94194.00;;;40.01;20.74
8280;BME280;8335;42.646;23.380;2022-08-19T10:36:25;94242.22;;;40.50;20.28
8280;BME280;8335;42.646;23.380;2022-08-19T10:38:55;94240.16;;;40.11;20.37
8280;BME280;8335;42.646;23.380;2022-08-19T10:41:25;94232.56;;;39.06;21.12
8280;BME280;8335;42.646;23.380;2022-08-19T10:43:53;94229.97;;;39.22;21.00
8280;BME280;8335;42.646;23.380;2022-08-19T10:46:22;94228.16;;;39.48;21.13
8280;BME280;8335;42.646;23.380;2022-08-19T10:48:49;94222.56;;;39.90;21.12
8280;BME280;8335;42.646;23.380;2022-08-19T10:51:16;94223.66;;;40.04;21.02
8280;BME280;8335;42.646;23.380;2022-08-19T10:54:03;94223.91;;;39.98;20.85
8280;BME280;8335;42.646;23.380;2022-08-19T10:56:30;94224.44;;;40.05;21.18
8280;BME280;8335;42.646;23.380;2022-08-19T10:59:16;94221.22;;;39.98;21.02
8280;BME280;8335;42.646;23.380;2022-08-19T11:01:44;94214.84;;;39.88;21.37
8280;BME280;8335;42.646;23.380;2022-08-19T11:04:12;94218.31;;;39.79;21.12
8280;BME280;8335;42.646;23.380;2022-08-19T11:06:39;94215.41;;;39.60;21.58
8280;BME280;8335;42.646;23.380;2022-08-19T11:09:07;94177.22;;;39.19;22.08
8280;BME280;8335;42.646;23.380;2022-08-19T11:11:37;94215.34;;;39.24;22.18
8280;BME280;8335;42.646;23.380;2022-08-19T11:14:06;94221.31;;;38.84;21.83
8280;BME280;8335;42.646;23.380;2022-08-19T11:16:33;94213.25;;;38.64;21.97
8280;BME280;8335;42.646;23.380;2022-08-19T11:19:00;94174.44;;;38.15;22.88
8280;BME280;8335;42.646;23.380;2022-08-19T11:21:28;94209.50;;;38.12;22.18
8280;BME280;8335;42.646;23.380;2022-08-19T11:23:59;94203.78;;;37.88;23.14
8280;BME280;8335;42.646;23.380;2022-08-19T11:26:28;94172.66;;;37.52;23.24
8280;BME280;8335;42.646;23.380;2022-08-19T11:28:56;94190.97;;;37.48;23.44
8280;BME280;8335;42.646;23.380;2022-08-19T11:31:25;94146.81;;;37.15;23.75
8280;BME280;8335;42.646;23.380;2022-08-19T11:33:52;94190.25;;;37.31;23.25
8280;BME280;8335;42.646;23.380;2022-08-19T11:36:20;94184.91;;;37.26;24.65
8280;BME280;8335;42.646;23.380;2022-08-19T11:38:48;94184.09;;;36.98;24.39
8280;BME280;8335;42.646;23.380;2022-08-19T11:41:16;94175.47;;;36.64;24.04
8280;BME280;8335;42.646;23.380;2022-08-19T11:43:45;94167.53;;;36.42;24.47
8280;BME280;8335;42.646;23.380;2022-08-19T11:46:15;94169.09;;;36.38;24.86
8280;BME280;8335;42.646;23.380;2022-08-19T11:48:42;94125.09;;;35.98;25.04
8280;BME280;8335;42.646;23.380;2022-08-19T11:51:11;94167.94;;;36.12;25.77
8280;BME280;8335;42.646;23.380;2022-08-19T11:53:39;94170.16;;;36.20;24.68
8280;BME280;8335;42.646;23.380;2022-08-19T11:56:06;94161.66;;;36.18;26.25
8280;BME280;8335;42.646;23.380;2022-08-19T11:58:34;94175.47;;;36.20;26.46
8280;BME280;8335;42.646;23.380;2022-08-19T12:01:05;94162.63;;;36.12;25.45
8280;BME280;8335;42.646;23.380;2022-08-19T12:03:32;94158.25;;;36.01;25.76
8280;BME280;8335;42.646;23.380;2022-08-19T12:06:03;94107.56;;;35.59;25.29
8280;BME280;8335;42.646;23.380;2022-08-19T12:08:30;94149.84;;;35.70;25.26
8280;BME280;8335;42.646;23.380;2022-08-19T12:10:57;94096.66;;;35.38;26.26
8280;BME280;8335;42.646;23.380;2022-08-19T12:13:26;94144.13;;;35.78;26.14
8280;BME280;8335;42.646;23.380;2022-08-19T12:15:53;94139.25;;;35.70;26.49
8280;BME280;8335;42.646;23.380;2022-08-19T12:18:21;94131.00;;;35.67;26.88
8280;BME280;8335;42.646;23.380;2022-08-19T12:20:50;94134.44;;;35.67;26.36
8280;BME280;8335;42.646;23.380;2022-08-19T12:23:17;94141.41;;;35.73;26.29
8280;BME280;8335;42.646;23.380;2022-08-19T12:25:47;94128.41;;;35.72;26.36
8280;BME280;8335;42.646;23.380;2022-08-19T12:28:17;94120.41;;;35.50;26.74
8280;BME280;8335;42.646;23.380;2022-08-19T12:30:44;94123.53;;;35.30;27.02
8280;BME280;8335;42.646;23.380;2022-08-19T12:33:11;94115.75;;;35.23;27.09
8280;BME280;8335;42.646;23.380;2022-08-19T12:35:41;94119.50;;;35.27;27.14
8280;BME280;8335;42.646;23.380;2022-08-19T12:38:09;94118.53;;;35.34;27.07
8280;BME280;8335;42.646;23.380;2022-08-19T12:40:36;94117.75;;;35.33;27.49
8280;BME280;8335;42.646;23.380;2022-08-19T12:43:05;94111.94;;;35.36;27.25
8280;BME280;8335;42.646;23.380;2022-08-19T12:45:32;94104.47;;;35.45;27.39
8280;BME280;8335;42.646;23.380;2022-08-19T12:47:58;94105.72;;;35.42;27.03
8280;BME280;8335;42.646;23.380;2022-08-19T12:50:25;94109.56;;;35.35;27.08
8280;BME280;8335;42.646;23.380;2022-08-19T12:52:54;94107.94;;;35.34;27.00
8280;BME280;8335;42.646;23.380;2022-08-19T12:55:21;94110.75;;;35.27;27.10
8280;BME280;8335;42.646;23.380;2022-08-19T12:57:48;94115.09;;;35.33;27.15
8280;BME280;8335;42.646;23.380;2022-08-19T13:00:18;94099.78;;;35.18;26.97
8280;BME280;8335;42.646;23.380;2022-08-19T13:02:47;94090.53;;;35.21;26.93
8280;BME280;8335;42.646;23.380;2022-08-19T13:05:18;94105.81;;;35.30;27.40
8280;BME280;8335;42.646;23.380;2022-08-19T13:07:47;94101.56;;;35.29;27.32
8280;BME280;8335;42.646;23.380;2022-08-19T13:10:18;94101.47;;;35.24;27.09
8280;BME280;8335;42.646;23.380;2022-08-19T13:12:47;94096.41;;;35.23;26.98
8280;BME280;8335;42.646;23.380;2022-08-19T13:15:16;94097.84;;;35.14;26.21
8280;BME280;8335;42.646;23.380;2022-08-19T13:17:47;94096.50;;;35.11;26.58